createdAt,value
2022-09-30T00:00:36.911Z,99.11
2022-09-30T00:06:09.512Z,99.33
2022-09-30T00:11:40.340Z,98.88
2022-09-30T00:17:12.137Z,99.39
2022-09-30T00:22:43.814Z,99.37
2022-09-30T00:28:15.510Z,99.56
2022-09-30T00:33:53.642Z,99.37
2022-09-30T00:39:25.331Z,99.49
2022-09-30T00:44:57.079Z,98.93
2022-09-30T00:50:28.780Z,99.64
2022-09-30T00:56:00.507Z,99.75
2022-09-30T01:01:32.274Z,99.39
2022-09-30T01:07:04.175Z,99.4
2022-09-30T01:12:35.740Z,99.86
2022-09-30T01:18:07.453Z,100.0
2022-09-30T01:23:39.270Z,100.0
2022-09-30T01:29:10.886Z,100.0
2022-09-30T01:34:47.045Z,100.0
2022-09-30T01:40:18.806Z,100.0
2022-09-30T01:45:50.766Z,100.0
2022-09-30T01:51:22.245Z,100.0
2022-09-30T01:56:53.971Z,100.0
2022-09-30T02:02:25.845Z,100.0
2022-09-30T02:07:57.423Z,100.0
2022-09-30T02:13:29.135Z,100.0
2022-09-30T02:19:00.832Z,100.0
2022-09-30T02:24:32.558Z,100.0
2022-09-30T02:30:04.358Z,100.0
2022-09-30T02:35:42.450Z,100.0
2022-09-30T02:41:14.189Z,100.0
2022-09-30T02:46:46.039Z,99.64
2022-09-30T02:52:17.548Z,99.07
2022-09-30T02:57:49.309Z,98.33
2022-09-30T03:03:21.157Z,98.41
2022-09-30T03:08:52.758Z,98.02
2022-09-30T03:14:24.493Z,98.57
2022-09-30T03:19:56.201Z,99.05
2022-09-30T03:25:27.941Z,99.39
2022-09-30T03:30:59.843Z,99.52
2022-09-30T03:36:35.801Z,99.55
2022-09-30T03:42:07.541Z,99.63
2022-09-30T03:47:39.257Z,99.99
2022-09-30T03:53:10.957Z,99.36
2022-09-30T03:58:42.720Z,99.61
2022-09-30T04:04:14.451Z,99.95
2022-09-30T04:09:46.331Z,99.74
2022-09-30T04:15:17.892Z,100.0
2022-09-30T04:20:49.551Z,100.0
2022-09-30T04:26:21.593Z,100.0
2022-09-30T04:31:53.256Z,99.49
2022-09-30T04:37:31.125Z,98.84
2022-09-30T04:43:02.912Z,98.73
2022-09-30T04:48:34.592Z,98.49
2022-09-30T04:54:06.352Z,98.1
2022-09-30T04:59:38.083Z,98.6
2022-09-30T05:05:09.789Z,97.81
2022-09-30T05:10:41.505Z,97.52
2022-09-30T05:16:13.381Z,99.53
2022-09-30T05:21:44.930Z,99.07
2022-09-30T05:27:16.635Z,99.86
2022-09-30T05:32:48.394Z,100.0
2022-09-30T05:38:26.506Z,99.77
2022-09-30T05:43:58.198Z,99.65
2022-09-30T05:49:29.970Z,100.0
2022-09-30T05:55:01.643Z,100.0
2022-09-30T06:00:33.403Z,99.48
2022-09-30T06:06:05.139Z,99.89
2022-09-30T06:11:36.868Z,100.0
2022-09-30T06:17:08.931Z,100.0
2022-09-30T06:22:40.487Z,100.0
2022-09-30T06:28:12.030Z,100.0
2022-09-30T06:33:44.007Z,100.0
2022-09-30T06:39:21.887Z,100.0
2022-09-30T06:44:54.105Z,99.14
2022-09-30T06:50:26.217Z,99.92
2022-09-30T06:55:57.103Z,100.0
2022-09-30T07:01:28.969Z,99.53
2022-09-30T07:07:00.512Z,99.17
2022-09-30T07:12:32.234Z,99.26
2022-09-30T07:18:03.973Z,98.22
2022-09-30T07:23:35.691Z,98.62
2022-09-30T07:29:07.590Z,98.92
2022-09-30T07:34:39.098Z,97.57
2022-09-30T07:40:15.332Z,98.59
2022-09-30T07:45:47.145Z,99.4
2022-09-30T07:51:18.837Z,98.95
2022-09-30T07:57:11.495Z,98.69
2022-09-30T08:02:22.470Z,98.66
2022-09-30T08:07:53.915Z,99.62
2022-09-30T08:13:25.640Z,99.45
2022-09-30T08:18:57.310Z,99.68
2022-09-30T08:24:29.030Z,99.78
2022-09-30T08:30:05.176Z,98.9
2022-09-30T08:35:32.494Z,98.79
2022-09-30T08:41:09.119Z,99.28
2022-09-30T08:46:40.363Z,97.89
2022-09-30T08:52:24.697Z,98.55
2022-09-30T08:57:47.904Z,96.19
2022-09-30T09:03:15.489Z,94.82
2022-09-30T09:08:47.210Z,96.62
2022-09-30T09:14:19.034Z,94.43
2022-09-30T09:19:50.715Z,93.67
2022-09-30T09:25:22.495Z,94.7
2022-09-30T09:30:54.213Z,97.01
2022-09-30T09:36:25.934Z,95.38
2022-09-30T09:42:01.991Z,94.75
2022-09-30T09:47:33.741Z,91.77
2022-09-30T09:53:05.463Z,92.29
2022-09-30T09:58:37.209Z,89.75
2022-09-30T10:04:08.910Z,89.42
2022-09-30T10:09:40.614Z,88.34
2022-09-30T10:15:12.395Z,88.01
2022-09-30T10:20:44.132Z,85.91
2022-09-30T10:26:16.013Z,85.12
2022-09-30T10:31:47.685Z,83.22
2022-09-30T10:37:19.429Z,81.61
2022-09-30T10:42:55.369Z,79.06
2022-09-30T10:48:27.058Z,78.11
2022-09-30T10:53:58.776Z,78.4
2022-09-30T10:59:30.939Z,77.31
2022-09-30T11:05:02.312Z,77.92
2022-09-30T11:10:34.020Z,73.85
2022-09-30T11:16:05.878Z,75.88
2022-09-30T11:21:37.410Z,74.16
2022-09-30T11:27:09.138Z,73.59
2022-09-30T11:32:40.833Z,72.59
2022-09-30T11:38:12.592Z,70.98
2022-09-30T11:43:48.665Z,72.32
2022-09-30T11:49:20.676Z,68.41
2022-09-30T11:54:52.173Z,66.6
2022-09-30T12:00:23.906Z,68.43
2022-09-30T12:05:55.625Z,67.24
2022-09-30T12:11:27.333Z,66.58
2022-09-30T12:16:59.237Z,67.12
2022-09-30T12:22:30.799Z,67.13
2022-09-30T12:28:02.612Z,68.22
2022-09-30T12:33:34.313Z,66.97
2022-09-30T12:39:06.066Z,68.87
2022-09-30T12:44:44.171Z,68.07
2022-09-30T12:50:15.981Z,68.76
2022-09-30T12:55:47.913Z,70.6
2022-09-30T13:01:19.545Z,69.83
2022-09-30T13:06:51.138Z,71.15
2022-09-30T13:12:22.847Z,70.09
2022-09-30T13:17:54.625Z,68.91
2022-09-30T13:23:26.421Z,68.09
2022-09-30T13:28:58.045Z,70.14
2022-09-30T13:34:29.796Z,71.25
2022-09-30T13:40:01.438Z,70.02
2022-09-30T13:45:39.839Z,70.33
2022-09-30T13:51:11.310Z,70.51
2022-09-30T13:56:43.021Z,70.51
2022-09-30T14:02:21.493Z,68.28
2022-09-30T14:07:46.481Z,70.42
2022-09-30T14:13:18.187Z,68.17
2022-09-30T14:18:49.849Z,70.78
2022-09-30T14:24:21.649Z,72.75
2022-09-30T14:29:53.400Z,70.72
2022-09-30T14:35:25.142Z,70.26
2022-09-30T14:40:56.844Z,69.75
2022-09-30T14:46:33.374Z,71.7
2022-09-30T14:52:04.695Z,70.57
2022-09-30T14:57:36.438Z,71.51
2022-09-30T15:03:08.294Z,71.66
2022-09-30T15:08:39.882Z,72.2
2022-09-30T15:14:11.605Z,74.28
2022-09-30T15:19:43.505Z,75.2
2022-09-30T15:25:15.058Z,76.22
2022-09-30T15:30:46.778Z,75.61
2022-09-30T15:36:19.026Z,74.74
2022-09-30T15:41:50.193Z,76.76
2022-09-30T15:47:26.317Z,76.03
2022-09-30T15:52:58.070Z,74.44
2022-09-30T15:58:29.800Z,75.33
2022-09-30T16:04:01.497Z,76.37
2022-09-30T16:09:33.312Z,77.05
2022-09-30T16:15:04.990Z,78.4
2022-09-30T16:20:36.691Z,78.4
2022-09-30T16:26:08.450Z,79.27
2022-09-30T16:31:40.509Z,80.42
2022-09-30T16:37:11.872Z,81.06
2022-09-30T16:42:43.596Z,81.2
2022-09-30T16:48:19.712Z,81.36
2022-09-30T16:53:51.464Z,81.85
2022-09-30T16:59:23.214Z,81.92
2022-09-30T17:04:54.949Z,82.32
2022-09-30T17:10:26.670Z,82.49
2022-09-30T17:15:58.440Z,82.53
2022-09-30T17:21:30.209Z,82.42
2022-09-30T17:27:01.961Z,82.48
2022-09-30T17:32:33.577Z,81.9
2022-09-30T17:38:05.294Z,82.27
2022-09-30T17:43:37.016Z,82.02
2022-09-30T17:49:13.142Z,82.43
2022-09-30T17:54:52.356Z,82.29
2022-09-30T18:00:16.582Z,82.33
2022-09-30T18:05:48.348Z,83.44
2022-09-30T18:11:20.037Z,84.66
2022-09-30T18:16:51.901Z,84.96
2022-09-30T18:22:23.465Z,85.37
2022-09-30T18:27:55.300Z,85.96
2022-09-30T18:33:27.021Z,85.97
2022-09-30T18:38:58.737Z,86.14
2022-09-30T18:44:30.489Z,86.9
2022-09-30T18:50:08.621Z,86.96
2022-09-30T18:55:40.392Z,86.94
2022-09-30T19:01:12.298Z,87.22
2022-09-30T19:06:43.848Z,88.16
2022-09-30T19:12:15.581Z,88.52
2022-09-30T19:17:47.401Z,88.41
2022-09-30T19:23:19.051Z,88.59
2022-09-30T19:28:50.757Z,88.65
2022-09-30T19:34:32.315Z,89.5
2022-09-30T19:39:54.258Z,89.19
2022-09-30T19:45:26.653Z,89.3
2022-09-30T19:51:04.067Z,90.38
2022-09-30T19:56:35.798Z,90.41
2022-09-30T20:02:07.574Z,90.3
2022-09-30T20:07:39.278Z,90.18
2022-09-30T20:13:11.006Z,90.4
2022-09-30T20:18:42.714Z,90.66
2022-09-30T20:24:14.499Z,90.37
2022-09-30T20:29:46.238Z,90.4
2022-09-30T20:35:17.910Z,90.7
2022-09-30T20:40:49.582Z,91.75
2022-09-30T20:46:21.336Z,91.58
2022-09-30T20:51:59.462Z,91.79
2022-09-30T20:57:31.288Z,92.37
2022-09-30T21:03:02.961Z,92.01
2022-09-30T21:08:34.643Z,92.42
2022-09-30T21:14:06.430Z,92.47
2022-09-30T21:19:38.189Z,92.68
2022-09-30T21:25:09.857Z,92.82
2022-09-30T21:30:41.647Z,93.1
2022-09-30T21:36:13.342Z,93.26
2022-09-30T21:41:45.086Z,93.88
2022-09-30T21:47:17.085Z,94.57
2022-09-30T21:52:55.217Z,95.67
2022-09-30T21:58:26.639Z,94.32
2022-09-30T22:03:58.389Z,95.5
2022-09-30T22:09:30.102Z,94.88
2022-09-30T22:15:01.849Z,96.25
2022-09-30T22:20:33.582Z,96.4
2022-09-30T22:26:05.268Z,95.82
2022-09-30T22:31:38.082Z,96.22
2022-09-30T22:37:08.765Z,95.69
2022-09-30T22:42:40.458Z,95.6
2022-09-30T22:48:12.196Z,95.89
2022-09-30T22:53:48.314Z,95.33
2022-09-30T22:59:19.961Z,95.05
2022-09-30T23:04:51.765Z,95.04
2022-09-30T23:10:23.473Z,94.79
2022-09-30T23:15:55.223Z,95.0
2022-09-30T23:21:26.897Z,94.97
2022-09-30T23:26:58.858Z,95.0
2022-09-30T23:32:30.378Z,94.87
2022-09-30T23:38:02.114Z,94.77
2022-09-30T23:43:33.813Z,94.7
2022-09-30T23:49:05.743Z,95.27
2022-09-30T23:54:42.078Z,95.22
